Página principal
METAR-TAF:

METAR-TAF

Aeroportos :

Lampedusa, Itália

latitude: 35-30N, longitude: 012-36E, altura: 16 m

Observação actual do tempo

O boletim foi feito há 1 hora e 11 minutos, às 11:50 UTC
Vento 19 kt de nor-noroeste
Temperatura 15°C
Humidade 55%
Pressão 1026 hPa
Visibilidade 10 km ou mais
Poucas nuvensa uma altura de 3000 ft

METAR: LICD 181150Z 33019KT 9999 FEW030 15/06 Q1026

Hora: 14:01 (13:01 UTC)

Previsão

O boletim foi feito há 2 horas e 1 minutos, às 11:00 UTC
Previsão válida de 18 às 12 UTC a 19 às 12 UTC
Vento 20 kt de nor-noroeste
Visibilidade 10 km ou mais
Nuvens dispersasa uma altura de 2000 ft
Tornando-se
de 18 às 20 UTC a 18 às 22 UTC
Vento 10 kt de noroeste
Tornando-se
de 19 às 09 UTC a 19 às 11 UTC
Vento 10 kt de oes-sudoeste

TAF: LICD 181100Z 1812/1912 33020KT 9999 SCT020 BECMG 1820/1822 32010KT BECMG 1909/1911 24010KT

Observações e previsões do tempo de mais de 4000 aeroportos (mensagens METAR e TAF).

As estações disponíveis são os pontos amarelos e vermelhos sobre o mapa.

Mova o rato sobre o mapa para ver o nome da estação.

Depois clique no ponto para visualizar as observações e previsões meteorológicas.

Para alterar o mapa : clique nos botões verdes com uma cruz preta para aumentar o zoom; no botão verde com uma pitada de zoom; ou nas setas verdes para mapas adjacentes.


METAR-TAF: